Terminal Aerodrome Forecast
Issued by NWS Boston, MA

Home | Current Version | Previous Version | Text Only | Print | Product List | Glossary On
Versions: 1 2 3 4 5 6 7 8 9 10 11 12 13 14 15 16 17 18 19
000
FTUS41 KBOX 251122
TAFORH
TAF
KORH 251122Z 2512/2612 06012KT P6SM -SHRA OVC006
     FM251500 06012G19KT 5SM -RA OVC008
     FM260300 06009KT 1SM -RA BR OVC008
     FM260900 05008KT 2SM -RA BR OVC003=

USA.gov is the U.S. government's official web portal to all federal, state and local government web resources and services.